Time;durP1;ratioP1;P1;durP2;ratioP2;P2;SDS_P1;SDS_P2;PMS_P1;PMS_P2;Temp;Humidity;BMP_temperature;BMP_pressure;BME280_temperature;BME280_humidity;BME280_pressure;Samples;Min_cycle;Max_cycle;Signal;HPM_P1;HPM_P2
2023/08/09 00:02:46;;;;;;;8.35;3.80;;;;;;;12.86;100.00;100498.09;5606112;31;34630;-71
2023/08/09 00:05:48;;;;;;;9.45;3.80;;;;;;;12.85;100.00;100502.56;5606718;31;34118;-71
2023/08/09 00:08:51;;;;;;;6.72;3.72;;;;;;;12.82;100.00;100504.78;5607002;31;33870;-71
2023/08/09 00:11:53;;;;;;;9.88;4.10;;;;;;;12.76;100.00;100501.00;5606910;31;34159;-71
2023/08/09 00:14:56;;;;;;;10.30;3.60;;;;;;;12.73;100.00;100508.53;5606800;31;33950;-71
2023/08/09 00:18:00;;;;;;;10.00;3.47;;;;;;;12.71;100.00;100507.84;5606849;31;33906;-71
2023/08/09 00:21:03;;;;;;;5.70;3.70;;;;;;;12.67;100.00;100507.41;5606712;31;33897;-71
2023/08/09 00:24:10;;;;;;;9.80;3.70;;;;;;;12.62;100.00;100504.44;5606790;31;33894;-70
2023/08/09 00:27:13;;;;;;;7.12;3.65;;;;;;;12.70;100.00;100512.34;5606758;31;33947;-71
2023/08/09 00:30:17;;;;;;;9.05;4.22;;;;;;;12.68;100.00;100510.88;5579918;31;34398;-70
2023/08/09 00:33:20;;;;;;;8.15;4.03;;;;;;;12.62;100.00;100515.91;5606607;31;33795;-70
2023/08/09 00:36:23;;;;;;;9.18;4.12;;;;;;;12.62;100.00;100521.25;5606546;31;33828;-70
2023/08/09 00:39:26;;;;;;;8.88;4.10;;;;;;;12.66;100.00;100523.53;5605665;31;34788;-70
2023/08/09 00:42:32;;;;;;;6.90;4.10;;;;;;;12.63;100.00;100514.87;5605933;31;34427;-70
2023/08/09 00:45:37;;;;;;;10.25;3.90;;;;;;;12.58;100.00;100505.81;5606507;31;33777;-71
2023/08/09 00:48:40;;;;;;;7.25;3.80;;;;;;;12.53;100.00;100510.81;5605879;31;33639;-71
2023/08/09 00:51:44;;;;;;;9.07;4.28;;;;;;;12.49;100.00;100498.88;5606576;31;33687;-71
2023/08/09 00:54:48;;;;;;;9.65;4.20;;;;;;;12.46;100.00;100502.72;5606345;31;33892;-71
2023/08/09 00:57:53;;;;;;;7.50;4.10;;;;;;;12.49;100.00;100502.34;5605704;31;33789;-70
2023/08/09 01:00:56;;;;;;;7.20;4.00;;;;;;;12.52;100.00;100510.00;5606485;31;34232;-71
2023/08/09 01:03:58;;;;;;;6.97;3.92;;;;;;;12.47;100.00;100501.72;5606525;31;35039;-71
2023/08/09 01:07:01;;;;;;;10.40;4.22;;;;;;;12.44;100.00;100491.41;5605691;31;34093;-71
2023/08/09 01:10:15;;;;;;;7.53;4.25;;;;;;;12.44;100.00;100499.38;5606485;31;33610;-71
2023/08/09 01:13:19;;;;;;;6.07;3.85;;;;;;;12.48;100.00;100498.06;5606433;31;33866;-70
2023/08/09 01:16:27;;;;;;;7.25;3.95;;;;;;;12.45;100.00;100501.03;5606245;31;33897;-70
2023/08/09 01:19:47;;;;;;;7.15;3.97;;;;;;;12.41;100.00;100497.09;5606607;31;33826;-70
2023/08/09 01:23:01;;;;;;;7.40;4.18;;;;;;;12.38;100.00;100507.25;5605552;31;34216;-71
2023/08/09 01:26:05;;;;;;;6.05;4.05;;;;;;;12.36;100.00;100499.44;5606336;31;33921;-70
2023/08/09 01:29:08;;;;;;;8.35;3.85;;;;;;;12.35;100.00;100499.62;5605290;31;34427;-70
2023/08/09 01:32:12;;;;;;;7.80;4.10;;;;;;;12.35;100.00;100500.44;5605954;31;33805;-70
2023/08/09 01:35:16;;;;;;;11.12;4.07;;;;;;;12.38;100.00;100499.28;5604986;31;33650;-70
2023/08/09 01:38:24;;;;;;;5.85;3.60;;;;;;;12.44;100.00;100499.38;5604983;31;33829;-70
2023/08/09 01:41:29;;;;;;;6.47;3.60;;;;;;;12.70;100.00;100493.72;5605325;31;33645;-70
2023/08/09 01:44:33;;;;;;;5.97;3.75;;;;;;;12.57;100.00;100496.16;5605069;31;33858;-70
2023/08/09 01:47:39;;;;;;;6.32;3.47;;;;;;;12.50;100.00;100497.84;5606148;31;33833;-70
2023/08/09 01:50:45;;;;;;;8.60;3.67;;;;;;;12.50;100.00;100493.38;5604898;31;33676;-70
2023/08/09 01:53:48;;;;;;;5.07;3.30;;;;;;;12.46;100.00;100492.06;5605716;31;35122;-70
2023/08/09 01:56:51;;;;;;;8.82;3.65;;;;;;;12.41;100.00;100497.09;5605647;31;34457;-70
2023/08/09 01:59:56;;;;;;;6.12;3.20;;;;;;;12.58;100.00;100498.66;5604817;31;33701;-70
2023/08/09 02:02:59;;;;;;;7.03;3.50;;;;;;;12.69;100.00;100484.06;5605548;31;33721;-70
2023/08/09 02:06:02;;;;;;;8.13;3.50;;;;;;;12.66;100.00;100494.25;5605764;31;33848;-70
2023/08/09 02:09:06;;;;;;;6.03;3.22;;;;;;;12.58;100.00;100487.16;5604524;31;33980;-70
2023/08/09 02:12:10;;;;;;;7.40;3.05;;;;;;;12.63;100.00;100487.47;5605448;31;33935;-70
2023/08/09 02:15:15;;;;;;;7.30;3.35;;;;;;;12.53;100.00;100492.19;5605382;31;34383;-70
2023/08/09 02:18:18;;;;;;;10.45;3.33;;;;;;;12.49;100.00;100496.22;5605276;31;34429;-71
2023/08/09 02:21:21;;;;;;;9.27;3.80;;;;;;;12.44;100.00;100502.03;5607352;31;33554;-70
2023/08/09 02:24:24;;;;;;;8.13;3.42;;;;;;;12.41;100.00;100507.72;5607981;31;33842;-70
2023/08/09 02:27:27;;;;;;;6.25;3.25;;;;;;;12.38;100.00;100510.75;5607952;31;34100;-70
2023/08/09 02:30:31;;;;;;;7.97;3.55;;;;;;;12.36;100.00;100507.44;5607999;31;33832;-70
2023/08/09 02:33:35;;;;;;;7.47;3.20;;;;;;;12.43;100.00;100512.88;5606905;31;33787;-70
2023/08/09 02:36:37;;;;;;;6.70;3.70;;;;;;;12.38;100.00;100512.59;5607809;31;34978;-70
2023/08/09 02:39:40;;;;;;;7.00;3.60;;;;;;;12.35;100.00;100516.41;5607723;31;35506;-70
2023/08/09 02:42:43;;;;;;;8.80;3.83;;;;;;;12.34;100.00;100514.78;5607906;31;33768;-70
2023/08/09 02:45:46;;;;;;;6.45;3.60;;;;;;;12.32;100.00;100518.59;5607634;31;34359;-70
2023/08/09 02:48:49;;;;;;;5.93;3.67;;;;;;;12.30;100.00;100516.09;5607676;31;34683;-70
2023/08/09 02:51:54;;;;;;;8.63;3.60;;;;;;;12.25;100.00;100521.13;5608092;31;34319;-70
2023/08/09 02:54:57;;;;;;;12.25;3.87;;;;;;;12.24;100.00;100521.31;5607687;31;33644;-70
2023/08/09 02:58:03;;;;;;;6.25;3.72;;;;;;;12.28;100.00;100523.47;5607710;31;33800;-70
2023/08/09 03:01:06;;;;;;;8.18;3.92;;;;;;;12.24;100.00;100521.31;5607755;31;33879;-71
2023/08/09 03:04:09;;;;;;;6.35;3.78;;;;;;;12.18;100.00;100533.47;5607667;31;33725;-70
2023/08/09 03:07:12;;;;;;;8.63;4.07;;;;;;;12.16;100.00;100524.84;5607362;31;33814;-71
2023/08/09 03:10:15;;;;;;;7.03;3.47;;;;;;;12.16;100.00;100532.81;5593418;31;34006;-71
2023/08/09 03:13:18;;;;;;;10.55;4.00;;;;;;;12.11;100.00;100529.84;5607456;31;33953;-71
2023/08/09 03:16:23;;;;;;;8.30;3.83;;;;;;;12.10;100.00;100531.69;5607434;31;33855;-71
2023/08/09 03:19:26;;;;;;;8.73;4.28;;;;;;;12.08;100.00;100533.69;5607371;31;33889;-70
2023/08/09 03:22:30;;;;;;;14.30;3.87;;;;;;;12.05;100.00;100541.19;5607388;31;33623;-71
2023/08/09 03:25:34;;;;;;;8.18;4.03;;;;;;;12.03;100.00;100536.03;5607526;31;34609;-71
2023/08/09 03:28:37;;;;;;;9.40;4.25;;;;;;;12.00;100.00;100538.22;5607255;31;34350;-71
2023/08/09 03:31:41;;;;;;;12.20;3.70;;;;;;;12.02;100.00;100538.87;5606932;31;34761;-71
2023/08/09 03:34:45;;;;;;;7.85;4.28;;;;;;;12.05;100.00;100538.53;5607377;31;34515;-71
2023/08/09 03:37:49;;;;;;;10.32;4.72;;;;;;;12.00;100.00;100544.38;5607115;31;34461;-71
2023/08/09 03:40:52;;;;;;;9.43;4.57;;;;;;;11.99;100.00;100541.87;5607502;31;34057;-71
2023/08/09 03:43:55;;;;;;;12.13;4.53;;;;;;;12.00;100.00;100544.38;5607504;31;34065;-70
2023/08/09 03:46:58;;;;;;;9.02;4.62;;;;;;;12.04;100.00;100544.84;5607024;31;33864;-70
2023/08/09 03:50:01;;;;;;;8.48;4.57;;;;;;;12.02;100.00;100546.84;5607094;31;33628;-71
2023/08/09 03:53:04;;;;;;;9.23;4.65;;;;;;;12.04;100.00;100540.38;5607463;31;34617;-71
2023/08/09 03:56:07;;;;;;;10.15;4.60;;;;;;;12.09;100.00;100532.69;5606778;31;33812;-71
2023/08/09 03:59:10;;;;;;;9.20;4.72;;;;;;;12.17;100.00;100532.66;5607013;31;33823;-71
2023/08/09 04:02:13;;;;;;;8.50;4.30;;;;;;;12.27;100.00;100532.44;5606939;31;34943;-71
2023/08/09 04:05:19;;;;;;;12.00;4.50;;;;;;;12.32;100.00;100535.41;5606904;31;33663;-72
2023/08/09 04:08:26;;;;;;;10.75;4.68;;;;;;;12.36;100.00;100547.34;5606884;31;33781;-71
2023/08/09 04:11:29;;;;;;;11.63;4.75;;;;;;;12.45;100.00;100548.94;5606744;31;34234;-71
2023/08/09 04:14:33;;;;;;;6.62;4.20;;;;;;;12.57;100.00;100549.37;5606833;31;33756;-70
2023/08/09 04:17:36;;;;;;;6.68;4.30;;;;;;;12.66;100.00;100547.50;5605690;31;33775;-70
2023/08/09 04:20:40;;;;;;;8.00;4.30;;;;;;;12.75;100.00;100552.56;5606810;31;34366;-70
2023/08/09 04:23:43;;;;;;;10.68;4.70;;;;;;;12.85;100.00;100562.97;5606771;31;33942;-70
2023/08/09 04:26:46;;;;;;;9.68;4.60;;;;;;;12.96;100.00;100560.75;5606646;31;34549;-70
2023/08/09 04:29:49;;;;;;;9.98;4.55;;;;;;;13.16;100.00;100552.28;5606513;31;33517;-71
2023/08/09 04:32:55;;;;;;;10.07;4.75;;;;;;;13.39;100.00;100555.72;5607036;31;33983;-71
2023/08/09 04:35:58;;;;;;;9.38;4.57;;;;;;;13.55;100.00;100544.09;5606548;31;35031;-71
2023/08/09 04:39:01;;;;;;;12.43;4.85;;;;;;;13.72;100.00;100543.72;5608371;31;33766;-69
2023/08/09 04:42:06;;;;;;;10.57;5.32;;;;;;;13.89;100.00;100553.16;5606083;31;34034;-70
2023/08/09 04:45:10;;;;;;;10.05;4.78;;;;;;;14.11;100.00;100547.91;5606539;31;34555;-70
2023/08/09 04:48:17;;;;;;;12.80;5.10;;;;;;;14.25;100.00;100563.06;5606680;31;33846;-70
2023/08/09 04:51:20;;;;;;;7.70;4.70;;;;;;;14.33;100.00;100561.09;5606672;31;34437;-70
2023/08/09 04:54:22;;;;;;;7.30;4.18;;;;;;;14.38;100.00;100563.25;5606887;31;33949;-70
2023/08/09 04:57:25;;;;;;;8.00;4.60;;;;;;;14.33;100.00;100561.09;5606666;31;35230;-70
2023/08/09 05:00:28;;;;;;;13.40;5.00;;;;;;;14.24;100.00;100556.06;5605978;31;34359;-70
2023/08/09 05:03:31;;;;;;;12.52;4.93;;;;;;;14.14;100.00;100556.34;5606861;31;33667;-71
2023/08/09 05:06:35;;;;;;;7.65;4.70;;;;;;;14.17;100.00;100553.34;5606408;31;33688;-70
2023/08/09 05:09:37;;;;;;;9.73;4.85;;;;;;;14.30;100.00;100556.16;5606540;31;34337;-70
2023/08/09 05:12:40;;;;;;;11.27;4.90;;;;;;;14.57;100.00;100559.97;5606298;31;33852;-70
2023/08/09 05:15:43;;;;;;;9.68;4.75;;;;;;;14.56;100.00;100554.84;5606193;31;33979;-71
2023/08/09 05:18:46;;;;;;;10.10;4.60;;;;;;;14.68;100.00;100559.47;5606341;31;33733;-71
2023/08/09 05:21:49;;;;;;;11.68;4.60;;;;;;;14.91;100.00;100569.16;5606158;31;34581;-71
2023/08/09 05:24:51;;;;;;;11.95;5.00;;;;;;;15.15;100.00;100576.78;5606745;31;34363;-71
2023/08/09 05:27:55;;;;;;;13.70;5.15;;;;;;;15.31;100.00;100573.81;5606154;31;33746;-71
2023/08/09 05:30:58;;;;;;;10.40;4.93;;;;;;;15.16;100.00;100581.09;5599401;31;34478;-72
2023/08/09 05:34:01;;;;;;;10.02;4.68;;;;;;;15.51;100.00;100580.16;5601167;31;33500;-72
2023/08/09 05:37:04;;;;;;;10.80;4.75;;;;;;;15.71;100.00;100582.97;5597898;31;34217;-72
2023/08/09 05:40:09;;;;;;;11.38;5.22;;;;;;;15.73;100.00;100586.31;5605168;31;33872;-72
2023/08/09 05:43:12;;;;;;;13.57;5.30;;;;;;;15.54;100.00;100576.28;5605653;31;33384;-72
2023/08/09 05:46:14;;;;;;;11.30;5.47;;;;;;;15.56;100.00;100575.06;5606136;31;34545;-72
2023/08/09 05:49:18;;;;;;;12.20;5.35;;;;;;;15.68;100.00;100571.84;5591490;31;33924;-72
2023/08/09 05:52:20;;;;;;;12.18;5.50;;;;;;;15.70;100.00;100565.28;5606001;31;34525;-72
2023/08/09 05:55:23;;;;;;;13.50;5.57;;;;;;;15.79;100.00;100566.75;5593653;31;34081;-72
2023/08/09 05:58:26;;;;;;;12.43;5.55;;;;;;;16.01;100.00;100575.53;5608132;31;33838;-72
2023/08/09 06:01:29;;;;;;;11.45;5.45;;;;;;;16.15;100.00;100576.44;5594427;31;33778;-72
2023/08/09 06:04:35;;;;;;;16.23;5.57;;;;;;;16.34;100.00;100565.81;5608425;31;33789;-71
2023/08/09 06:07:38;;;;;;;12.25;5.32;;;;;;;16.49;100.00;100574.50;5603282;31;33830;-72
2023/08/09 06:10:40;;;;;;;16.02;5.37;;;;;;;16.48;100.00;100564.00;5607228;31;34627;-71
2023/08/09 06:14:03;;;;;;;14.38;4.85;;;;;;;16.59;100.00;100571.47;5607635;31;35264;-71
2023/08/09 06:17:06;;;;;;;9.88;4.28;;;;;;;16.71;100.00;100566.34;5607655;31;33933;-72
2023/08/09 06:20:14;;;;;;;8.02;4.82;;;;;;;16.92;100.00;100550.94;5607593;31;33904;-71
2023/08/09 06:23:17;;;;;;;10.50;4.55;;;;;;;16.86;100.00;100567.81;5607819;31;33591;-71
2023/08/09 06:26:20;;;;;;;15.05;4.50;;;;;;;17.07;100.00;100568.66;5607862;31;33604;-72
2023/08/09 06:29:25;;;;;;;12.60;4.28;;;;;;;17.31;100.00;100576.94;5607640;31;34110;-72
2023/08/09 06:32:28;;;;;;;13.07;4.30;;;;;;;17.59;100.00;100576.72;5607795;31;33951;-72
2023/08/09 06:35:32;;;;;;;9.00;4.30;;;;;;;17.69;100.00;100569.06;5607743;31;34512;-72
2023/08/09 06:38:37;;;;;;;11.12;4.30;;;;;;;17.72;100.00;100565.97;5607662;31;33815;-72
2023/08/09 06:41:40;;;;;;;14.43;4.37;;;;;;;17.91;100.00;100568.81;5607078;31;33688;-72
2023/08/09 06:44:43;;;;;;;7.72;4.00;;;;;;;18.10;100.00;100571.44;5606722;31;34651;-72
2023/08/09 06:47:46;;;;;;;7.47;3.75;;;;;;;18.17;100.00;100572.22;5607729;31;34759;-72
2023/08/09 06:50:49;;;;;;;14.05;3.70;;;;;;;18.45;100.00;100568.38;5607153;31;35177;-72
2023/08/09 06:53:52;;;;;;;16.87;4.15;;;;;;;18.46;100.00;100572.72;5597809;31;33785;-72
2023/08/09 06:56:55;;;;;;;9.98;3.15;;;;;;;18.87;100.00;100573.16;5594108;31;34497;-72
2023/08/09 06:59:59;;;;;;;9.68;3.60;;;;;;;19.08;100.00;100580.00;5593839;31;33801;-72
2023/08/09 07:03:02;;;;;;;9.82;3.80;;;;;;;19.27;100.00;100580.91;5587090;31;35120;-72
2023/08/09 07:06:05;;;;;;;9.35;3.15;;;;;;;19.64;100.00;100571.91;5587016;31;33573;-73
2023/08/09 07:09:11;;;;;;;16.70;3.50;;;;;;;19.56;100.00;100568.69;5587346;31;33869;-73
2023/08/09 07:12:14;;;;;;;8.35;3.17;;;;;;;19.96;100.00;100573.44;5587545;31;34666;-71
2023/08/09 07:15:16;;;;;;;9.05;3.12;;;;;;;20.51;98.01;100568.03;5587653;31;34616;-72
2023/08/09 07:18:19;;;;;;;7.30;2.90;;;;;;;21.20;87.55;100566.63;5603156;31;34648;-72
2023/08/09 07:21:23;;;;;;;8.00;2.67;;;;;;;21.95;82.63;100570.25;5606554;31;33656;-73
2023/08/09 07:24:27;;;;;;;8.43;3.22;;;;;;;22.16;73.49;100565.28;5606432;31;33038;-73
2023/08/09 07:27:32;;;;;;;8.70;3.95;;;;;;;22.45;72.53;100564.25;5596799;31;34701;-74
2023/08/09 07:30:35;;;;;;;7.37;2.90;;;;;;;22.48;73.35;100558.34;5595789;31;33897;-73
2023/08/09 07:33:38;;;;;;;6.82;2.90;;;;;;;22.94;72.06;100571.69;5592004;31;34312;-70
2023/08/09 07:36:42;;;;;;;11.80;3.87;;;;;;;22.35;75.51;100566.75;5586337;31;34459;-72
2023/08/09 07:39:45;;;;;;;10.32;3.40;;;;;;;23.90;67.83;100566.16;5587019;31;34102;-74
2023/08/09 07:42:48;;;;;;;8.73;3.05;;;;;;;23.07;68.29;100562.44;5586580;31;33690;-72
2023/08/09 07:45:51;;;;;;;9.88;3.20;;;;;;;24.31;63.93;100560.19;5588368;31;34492;-73
2023/08/09 07:48:54;;;;;;;12.73;2.90;;;;;;;25.01;57.23;100559.31;5586629;31;33920;-73
2023/08/09 07:51:57;;;;;;;8.10;2.83;;;;;;;25.29;57.23;100550.84;5587684;31;33728;-73
2023/08/09 07:55:00;;;;;;;6.45;2.55;;;;;;;25.39;56.01;100558.25;5591326;31;34407;-73
2023/08/09 07:58:04;;;;;;;10.93;2.40;;;;;;;25.11;55.67;100567.53;5587052;31;33618;-73
2023/08/09 08:01:09;;;;;;;8.25;2.30;;;;;;;25.00;57.87;100554.94;5586919;31;33662;-73
2023/08/09 08:04:15;;;;;;;9.57;2.10;;;;;;;24.56;56.77;100559.66;5586161;31;34298;-74
2023/08/09 08:07:18;;;;;;;3.55;1.80;;;;;;;24.05;57.46;100558.22;5587089;31;34488;-73
2023/08/09 08:10:22;;;;;;;7.07;2.10;;;;;;;23.68;60.66;100560.69;5585925;31;34495;-72
2023/08/09 08:13:25;;;;;;;4.60;1.60;;;;;;;23.74;59.45;100560.50;5586923;31;34668;-72
2023/08/09 08:16:28;;;;;;;4.10;1.70;;;;;;;23.53;60.67;100566.69;5593634;31;33996;-73
2023/08/09 08:19:31;;;;;;;12.37;2.00;;;;;;;23.48;62.02;100555.78;5587137;31;33617;-72
2023/08/09 08:22:36;;;;;;;4.57;1.55;;;;;;;23.50;60.28;100559.09;5586959;31;34721;-72
2023/08/09 08:25:41;;;;;;;5.37;1.80;;;;;;;23.46;60.40;100567.94;5586769;31;34654;-72
2023/08/09 08:28:44;;;;;;;6.70;1.70;;;;;;;23.16;60.64;100566.37;5593683;31;34867;-72
2023/08/09 08:31:48;;;;;;;8.40;1.83;;;;;;;23.25;61.28;100562.19;5602686;31;33715;-73
2023/08/09 08:34:56;;;;;;;6.78;1.80;;;;;;;23.13;62.24;100549.81;5606056;31;34234;-73
2023/08/09 08:37:59;;;;;;;6.28;1.83;;;;;;;23.14;61.88;100565.78;5601537;31;33925;-73
2023/08/09 08:41:03;;;;;;;7.85;1.80;;;;;;;23.26;61.70;100565.72;5605984;31;34961;-72
2023/08/09 08:44:07;;;;;;;10.45;1.95;;;;;;;23.06;62.27;100563.50;5605504;31;33852;-73
2023/08/09 08:47:12;;;;;;;8.63;2.10;;;;;;;23.26;63.07;100561.12;5605247;31;34044;-73
2023/08/09 08:50:16;;;;;;;16.35;2.15;;;;;;;23.64;60.45;100560.38;5606048;31;34388;-72
2023/08/09 08:53:19;;;;;;;9.77;1.70;;;;;;;24.00;59.45;100561.69;5588971;31;33740;-73
2023/08/09 08:56:22;;;;;;;5.43;1.60;;;;;;;24.11;59.00;100559.91;5594063;31;34719;-72
2023/08/09 08:59:27;;;;;;;5.65;1.58;;;;;;;25.00;57.59;100560.38;5586295;31;34289;-74
2023/08/09 09:02:30;;;;;;;6.72;1.62;;;;;;;25.03;55.26;100543.56;5584673;31;34557;-72
2023/08/09 09:05:35;;;;;;;5.03;1.60;;;;;;;25.03;54.44;100560.69;5585424;31;34774;-72
2023/08/09 09:08:44;;;;;;;6.20;1.55;;;;;;;25.17;53.36;100552.94;5585778;31;33802;-74
2023/08/09 09:11:47;;;;;;;14.30;2.25;;;;;;;24.57;58.96;100551.25;5585669;31;34463;-73
2023/08/09 09:14:54;;;;;;;8.57;2.47;;;;;;;24.64;58.33;100548.34;5585805;31;34004;-67
2023/08/09 09:17:57;;;;;;;5.95;1.45;;;;;;;24.21;58.90;100547.31;5585662;31;34972;-69
2023/08/09 09:21:02;;;;;;;3.45;1.40;;;;;;;23.86;61.35;100548.75;5586098;31;33606;-69
2023/08/09 09:24:07;;;;;;;5.12;1.92;;;;;;;23.72;58.29;100538.25;5584981;31;33856;-69
2023/08/09 09:27:10;;;;;;;5.80;1.60;;;;;;;23.37;62.56;100543.97;5586297;31;33870;-71
2023/08/09 09:30:19;;;;;;;5.12;1.62;;;;;;;23.31;62.35;100541.44;5585470;31;33793;-71
2023/08/09 09:33:32;;;;;;;6.07;2.00;;;;;;;23.35;62.47;100550.69;5585839;31;34033;-70
2023/08/09 09:36:50;;;;;;;5.95;1.70;;;;;;;23.37;61.97;100543.16;5585587;31;34484;-71
2023/08/09 09:39:53;;;;;;;6.57;1.62;;;;;;;23.55;62.34;100547.50;5587103;31;34015;-69
2023/08/09 09:42:59;;;;;;;4.65;1.73;;;;;;;23.70;62.42;100551.25;5591460;31;33705;-69
2023/08/09 09:46:02;;;;;;;6.40;1.90;;;;;;;23.70;62.45;100545.84;5605252;31;34024;-70
2023/08/09 09:49:05;;;;;;;6.47;1.80;;;;;;;23.81;64.79;100542.22;5588970;31;33990;-69
2023/08/09 09:52:09;;;;;;;5.57;1.70;;;;;;;23.79;60.71;100541.63;5584620;31;33539;-70
2023/08/09 09:55:13;;;;;;;5.45;1.50;;;;;;;23.66;60.19;100542.00;5587271;31;33625;-69
2023/08/09 09:58:16;;;;;;;2.87;1.27;;;;;;;23.43;61.03;100541.34;5584811;31;33629;-70
2023/08/09 10:01:22;;;;;;;4.03;1.30;;;;;;;23.78;62.47;100541.87;5584720;31;33924;-69
2023/08/09 10:04:26;;;;;;;3.75;1.35;;;;;;;23.91;58.63;100544.22;5585357;31;34266;-69
2023/08/09 10:07:31;;;;;;;2.95;1.45;;;;;;;24.19;57.81;100546.78;5584422;31;33533;-71
2023/08/09 10:10:36;;;;;;;2.90;1.40;;;;;;;24.69;55.86;100535.63;5586146;31;33868;-70
2023/08/09 10:13:41;;;;;;;2.67;1.35;;;;;;;25.35;54.97;100528.09;5587156;31;33458;-71
2023/08/09 10:16:47;;;;;;;5.43;1.42;;;;;;;25.64;54.13;100522.31;5584937;31;35017;-69
2023/08/09 10:19:51;;;;;;;2.40;1.23;;;;;;;25.99;51.96;100524.38;5584404;31;34379;-71
2023/08/09 10:22:56;;;;;;;3.42;1.33;;;;;;;25.38;52.67;100516.69;5584702;31;34895;-71
2023/08/09 10:25:59;;;;;;;3.72;1.17;;;;;;;25.53;53.56;100507.81;5585485;31;33784;-71
2023/08/09 10:29:06;;;;;;;1.90;1.20;;;;;;;25.65;53.23;100502.22;5584758;31;34669;-71
2023/08/09 10:32:09;;;;;;;2.70;1.20;;;;;;;25.33;54.93;100508.50;5585407;31;33944;-69
2023/08/09 10:35:19;;;;;;;3.60;0.90;;;;;;;25.41;52.98;100509.94;5584452;31;33793;-70
2023/08/09 10:38:40;;;;;;;2.75;1.12;;;;;;;25.17;51.15;100501.34;5584997;31;34189;-70
2023/08/09 10:41:58;;;;;;;1.40;1.05;;;;;;;24.88;54.83;100502.75;5586648;31;34939;-69
2023/08/09 10:45:04;;;;;;;2.53;1.00;;;;;;;24.91;51.35;100497.63;5586320;31;35312;-69
2023/08/09 10:48:22;;;;;;;3.30;0.90;;;;;;;24.95;50.90;100498.72;5587129;31;33909;-71
2023/08/09 10:51:25;;;;;;;1.60;1.10;;;;;;;24.95;50.32;100501.44;5586842;31;33973;-70
2023/08/09 10:54:28;;;;;;;4.53;0.95;;;;;;;24.82;50.29;100504.56;5587963;31;33599;-71
2023/08/09 10:57:40;;;;;;;1.20;0.98;;;;;;;24.55;51.02;100517.31;5587526;31;33938;-69
2023/08/09 11:00:48;;;;;;;3.60;1.00;;;;;;;24.63;51.19;100514.97;5588040;31;34431;-69
2023/08/09 11:03:56;;;;;;;3.65;1.10;;;;;;;24.75;52.83;100503.94;5587271;31;34397;-69
2023/08/09 11:06:59;;;;;;;2.47;1.20;;;;;;;24.35;51.22;100509.00;5587601;31;34458;-70
2023/08/09 11:10:02;;;;;;;4.62;1.10;;;;;;;24.45;51.72;100506.38;5586677;31;33728;-70
2023/08/09 11:13:16;;;;;;;5.72;1.40;;;;;;;24.04;52.92;100510.50;5587563;31;33785;-69
2023/08/09 11:16:19;;;;;;;2.45;1.10;;;;;;;24.79;52.16;100509.66;5588435;31;34476;-69
2023/08/09 11:19:25;;;;;;;3.95;1.33;;;;;;;24.94;51.07;100507.94;5592778;31;33594;-69
2023/08/09 11:22:37;;;;;;;4.00;1.30;;;;;;;24.91;53.13;100489.47;5606976;31;33989;-70
2023/08/09 11:25:40;;;;;;;4.30;1.20;;;;;;;25.28;51.84;100489.47;5603028;31;34428;-70
2023/08/09 11:28:42;;;;;;;6.07;1.20;;;;;;;25.20;50.98;100497.28;5588345;31;33911;-68
2023/08/09 11:31:49;;;;;;;4.18;1.42;;;;;;;25.06;51.36;100484.16;5599711;31;33546;-69
2023/08/09 11:34:52;;;;;;;5.82;1.20;;;;;;;25.45;53.04;100484.69;5592131;31;33766;-70
2023/08/09 11:37:55;;;;;;;1.80;1.10;;;;;;;25.32;52.38;100487.06;5593452;31;33841;-70
2023/08/09 11:40:58;;;;;;;2.72;1.20;;;;;;;25.03;49.95;100494.69;5606851;31;33546;-69
2023/08/09 11:44:04;;;;;;;1.95;1.02;;;;;;;24.70;51.15;100484.91;5598753;31;33900;-69
2023/08/09 11:47:08;;;;;;;1.73;0.90;;;;;;;24.59;50.86;100492.13;5588853;31;35277;-70
2023/08/09 11:50:22;;;;;;;3.97;1.00;;;;;;;24.81;50.24;100489.34;5588314;31;33743;-69
2023/08/09 11:53:25;;;;;;;4.07;1.10;;;;;;;24.39;49.93;100491.13;5600153;31;34001;-69
2023/08/09 11:56:33;;;;;;;3.65;1.20;;;;;;;24.46;50.46;100487.13;5595706;31;33531;-70
2023/08/09 11:59:39;;;;;;;2.08;0.88;;;;;;;24.69;50.18;100484.09;5588926;31;33911;-69
2023/08/09 12:02:42;;;;;;;4.47;1.23;;;;;;;24.70;49.18;100487.63;5591519;31;33917;-69
2023/08/09 12:05:45;;;;;;;1.90;1.10;;;;;;;24.20;49.48;100488.78;5594848;31;33658;-69
2023/08/09 12:08:57;;;;;;;5.53;1.10;;;;;;;24.08;50.24;100484.53;5592855;31;33911;-69
2023/08/09 12:12:42;;;;;;;6.18;0.93;;;;;;;24.20;51.09;100480.66;5596521;31;34200;-68
2023/08/09 12:15:44;;;;;;;4.03;1.23;;;;;;;24.63;51.66;100485.13;5517326;32;33814;-68
2023/08/09 12:18:47;;;;;;;2.65;0.90;;;;;;;24.61;49.76;100481.03;5520508;32;33830;-69
2023/08/09 12:21:50;;;;;;;3.10;1.15;;;;;;;24.70;50.33;100490.34;5525908;32;33954;-69
2023/08/09 12:24:54;;;;;;;1.95;1.02;;;;;;;24.69;49.19;100489.50;5513426;32;34024;-69
2023/08/09 12:27:58;;;;;;;3.42;1.17;;;;;;;24.67;49.80;100482.72;5526822;32;33880;-69
2023/08/09 12:31:01;;;;;;;3.33;1.15;;;;;;;24.58;50.49;100486.97;5526020;32;33822;-69
2023/08/09 12:34:04;;;;;;;3.53;1.00;;;;;;;24.69;49.55;100478.66;5526064;32;35239;-69
2023/08/09 12:37:07;;;;;;;2.10;1.02;;;;;;;24.85;49.16;100482.31;5526189;32;33416;-69
2023/08/09 12:40:10;;;;;;;5.28;1.12;;;;;;;24.96;49.75;100483.25;5526278;32;33620;-68
2023/08/09 12:43:13;;;;;;;3.87;1.20;;;;;;;24.63;49.03;100490.56;5522737;32;33743;-68
2023/08/09 12:46:16;;;;;;;2.20;1.10;;;;;;;24.62;49.01;100482.69;5526122;32;34252;-69
2023/08/09 12:49:20;;;;;;;7.85;1.40;;;;;;;25.84;47.22;100487.09;5561548;31;33937;-69
2023/08/09 12:52:23;;;;;;;3.05;1.10;;;;;;;26.57;45.57;100479.69;5605721;31;33715;-69
2023/08/09 12:55:26;;;;;;;4.15;1.20;;;;;;;26.67;45.09;100480.53;5605489;31;33957;-69
2023/08/09 12:58:29;;;;;;;2.47;1.00;;;;;;;26.84;44.32;100474.78;5606269;31;33850;-68
2023/08/09 13:01:33;;;;;;;4.93;1.20;;;;;;;26.10;43.20;100477.91;5605371;31;34311;-68
2023/08/09 13:04:36;;;;;;;5.45;1.20;;;;;;;25.72;44.48;100475.59;5605182;31;34670;-68
2023/08/09 13:07:38;;;;;;;2.42;1.00;;;;;;;25.52;45.09;100474.37;5606262;31;34722;-69
2023/08/09 13:10:41;;;;;;;2.80;0.90;;;;;;;26.07;44.83;100483.06;5606532;31;33783;-69
2023/08/09 13:13:44;;;;;;;5.18;1.10;;;;;;;26.26;44.12;100476.09;5606505;31;33549;-69
2023/08/09 13:16:47;;;;;;;2.30;1.00;;;;;;;26.57;44.28;100461.47;5606132;31;34315;-69
2023/08/09 13:19:50;;;;;;;2.83;1.00;;;;;;;26.36;44.21;100462.50;5605566;31;34473;-69
2023/08/09 13:22:52;;;;;;;2.10;1.17;;;;;;;26.13;43.80;100457.53;5606173;31;33652;-69
2023/08/09 13:25:55;;;;;;;3.67;1.00;;;;;;;25.50;46.75;100460.28;5606050;31;34803;-69
2023/08/09 13:28:58;;;;;;;2.15;1.20;;;;;;;25.33;48.07;100447.94;5606073;31;33658;-69
2023/08/09 13:32:02;;;;;;;1.58;0.93;;;;;;;25.89;46.86;100451.78;5605274;31;35089;-67
2023/08/09 13:35:05;;;;;;;1.55;1.05;;;;;;;27.16;42.70;100466.34;5606226;31;33647;-70
2023/08/09 13:38:24;;;;;;;3.20;0.95;;;;;;;27.97;41.30;100453.31;5606195;31;34297;-70
2023/08/09 13:41:27;;;;;;;1.73;1.05;;;;;;;26.57;43.78;100449.75;5605908;31;33545;-68
2023/08/09 13:44:30;;;;;;;5.00;1.20;;;;;;;26.35;44.80;100452.72;5605773;31;33822;-68
2023/08/09 13:47:32;;;;;;;1.75;0.95;;;;;;;25.69;46.13;100455.22;5606207;31;33983;-69
2023/08/09 13:50:35;;;;;;;4.32;1.02;;;;;;;25.08;46.51;100440.44;5605697;31;33895;-69
2023/08/09 13:53:38;;;;;;;2.03;0.88;;;;;;;24.95;46.59;100446.34;5605431;31;33798;-68
2023/08/09 13:56:41;;;;;;;3.72;1.20;;;;;;;24.98;47.55;100443.13;5599849;31;33821;-68
2023/08/09 13:59:44;;;;;;;4.95;1.40;;;;;;;24.95;47.68;100443.63;5585648;31;34554;-68
2023/08/09 14:02:47;;;;;;;4.25;1.08;;;;;;;24.86;48.10;100442.44;5585678;31;33923;-69
2023/08/09 14:05:51;;;;;;;3.65;1.10;;;;;;;25.53;48.75;100437.19;5585653;31;33924;-71
2023/08/09 14:08:54;;;;;;;3.40;0.95;;;;;;;26.05;46.96;100439.84;5602218;31;34466;-70
2023/08/09 14:11:57;;;;;;;3.75;1.35;;;;;;;26.04;46.49;100435.50;5605491;31;33832;-70